createdAt,value
2022-09-02T00:00:41.060Z,0.00
2022-09-02T00:01:41.096Z,0.00
2022-09-02T00:02:41.142Z,0.00
2022-09-02T00:03:41.038Z,0.00
2022-09-02T00:04:41.031Z,0.00
2022-09-02T00:05:41.029Z,0.00
2022-09-02T00:06:41.022Z,0.00
2022-09-02T00:07:41.030Z,0.00
2022-09-02T00:08:41.008Z,0.00
2022-09-02T00:09:40.998Z,0.00
2022-09-02T00:10:40.991Z,0.00
2022-09-02T00:11:40.983Z,0.00
2022-09-02T00:12:41.007Z,0.00
2022-09-02T00:13:40.958Z,0.00
2022-09-02T00:14:40.957Z,0.00
2022-09-02T00:15:40.944Z,0.00
2022-09-02T00:16:40.981Z,0.00
2022-09-02T00:17:42.019Z,0.00
2022-09-02T00:18:43.151Z,0.00
2022-09-02T00:19:41.911Z,0.00
2022-09-02T00:20:40.912Z,0.00
2022-09-02T00:21:40.901Z,0.00
2022-09-02T00:22:40.914Z,0.00
2022-09-02T00:23:40.887Z,0.00
2022-09-02T00:24:40.879Z,0.00
2022-09-02T00:25:40.867Z,0.00
2022-09-02T00:26:40.867Z,0.00
2022-09-02T00:27:40.846Z,0.00
2022-09-02T00:28:44.295Z,0.00
2022-09-02T00:29:41.838Z,0.00
2022-09-02T00:30:40.824Z,0.00
2022-09-02T00:31:40.866Z,0.00
2022-09-02T00:32:40.809Z,0.00
2022-09-02T00:33:40.827Z,0.00
2022-09-02T00:34:40.793Z,0.00
2022-09-02T00:35:40.783Z,0.00
2022-09-02T00:36:40.776Z,0.00
2022-09-02T00:37:40.771Z,0.00
2022-09-02T00:38:40.793Z,0.00
2022-09-02T00:39:40.758Z,0.00
2022-09-02T00:40:40.789Z,0.00
2022-09-02T00:41:40.733Z,0.00
2022-09-02T00:42:40.728Z,0.00
2022-09-02T00:43:40.751Z,0.00
2022-09-02T00:44:40.715Z,0.00
2022-09-02T00:45:40.763Z,0.00
2022-09-02T00:46:40.692Z,0.00
2022-09-02T00:47:40.714Z,0.00
2022-09-02T00:48:40.691Z,0.00
2022-09-02T00:49:40.673Z,0.00
2022-09-02T00:50:40.671Z,0.00
2022-09-02T00:51:40.660Z,0.00
2022-09-02T00:52:40.677Z,0.00
2022-09-02T00:53:40.635Z,0.00
2022-09-02T00:54:40.641Z,0.00
2022-09-02T00:55:41.629Z,0.00
2022-09-02T00:56:40.618Z,0.00
2022-09-02T00:57:40.633Z,0.00
2022-09-02T00:58:40.598Z,0.00
2022-09-02T00:59:40.593Z,0.00
2022-09-02T01:00:40.688Z,0.00
2022-09-02T01:01:40.675Z,0.00
2022-09-02T01:02:40.593Z,0.00
2022-09-02T01:03:40.566Z,0.00
2022-09-02T01:04:40.555Z,0.00
2022-09-02T01:05:43.732Z,0.00
2022-09-02T01:06:41.539Z,0.00
2022-09-02T01:07:40.566Z,0.00
2022-09-02T01:08:40.527Z,0.00
2022-09-02T01:09:40.514Z,0.00
2022-09-02T01:10:40.502Z,0.00
2022-09-02T01:11:40.502Z,0.00
2022-09-02T01:12:40.531Z,0.00
2022-09-02T01:13:40.485Z,0.00
2022-09-02T01:14:40.490Z,0.00
2022-09-02T01:15:40.470Z,0.00
2022-09-02T01:16:42.036Z,0.00
2022-09-02T01:17:40.477Z,0.00
2022-09-02T01:18:40.446Z,0.00
2022-09-02T01:19:40.442Z,0.00
2022-09-02T01:20:40.437Z,0.00
2022-09-02T01:21:40.422Z,0.00
2022-09-02T01:22:40.452Z,0.00
2022-09-02T01:23:40.408Z,0.00
2022-09-02T01:24:40.398Z,0.00
2022-09-02T01:25:40.393Z,0.00
2022-09-02T01:26:40.392Z,0.00
2022-09-02T01:27:40.409Z,0.00
2022-09-02T01:28:40.372Z,0.00
2022-09-02T01:29:40.369Z,0.00
2022-09-02T01:30:40.359Z,0.00
2022-09-02T01:31:40.402Z,0.00
2022-09-02T01:32:40.339Z,0.00
2022-09-02T01:33:40.590Z,0.00
2022-09-02T01:34:40.325Z,0.00
2022-09-02T01:35:40.320Z,0.00
2022-09-02T01:36:40.322Z,0.00
2022-09-02T01:37:40.303Z,0.00
2022-09-02T01:38:40.320Z,0.00
2022-09-02T01:39:40.279Z,0.00
2022-09-02T01:40:41.318Z,0.00
2022-09-02T01:41:40.269Z,0.00
2022-09-02T01:42:40.262Z,0.00
2022-09-02T01:43:40.277Z,0.00
2022-09-02T01:44:40.249Z,0.00
2022-09-02T01:45:40.243Z,0.00
2022-09-02T01:46:40.311Z,0.00
2022-09-02T01:47:40.225Z,0.00
2022-09-02T01:48:40.244Z,0.00
2022-09-02T01:49:40.210Z,0.00
2022-09-02T01:50:45.060Z,0.00
2022-09-02T01:51:42.194Z,0.00
2022-09-02T01:52:40.190Z,0.00
2022-09-02T01:53:40.203Z,0.00
2022-09-02T01:54:40.169Z,0.00
2022-09-02T01:55:40.172Z,0.00
2022-09-02T01:56:40.157Z,0.00
2022-09-02T01:57:40.145Z,0.00
2022-09-02T01:58:40.168Z,0.00
2022-09-02T01:59:40.130Z,0.00
2022-09-02T02:00:40.208Z,0.00
2022-09-02T02:01:40.230Z,0.00
2022-09-02T02:02:40.106Z,0.00
2022-09-02T02:03:40.130Z,0.00
2022-09-02T02:04:40.087Z,0.00
2022-09-02T02:05:40.091Z,0.00
2022-09-02T02:06:40.081Z,0.00
2022-09-02T02:07:40.069Z,0.00
2022-09-02T02:08:40.087Z,0.00
2022-09-02T02:09:40.057Z,0.00
2022-09-02T02:10:40.055Z,0.00
2022-09-02T02:11:40.043Z,0.00
2022-09-02T02:12:40.032Z,0.00
2022-09-02T02:13:40.048Z,0.00
2022-09-02T02:14:40.019Z,0.00
2022-09-02T02:15:40.007Z,0.00
2022-09-02T02:16:40.033Z,0.00
2022-09-02T02:17:40.065Z,0.00
2022-09-02T02:18:40.007Z,0.00
2022-09-02T02:19:39.981Z,0.00
2022-09-02T02:20:39.971Z,0.00
2022-09-02T02:21:39.962Z,0.00
2022-09-02T02:22:39.963Z,0.00
2022-09-02T02:23:39.978Z,0.00
2022-09-02T02:24:39.936Z,0.00
2022-09-02T02:25:39.930Z,0.00
2022-09-02T02:26:39.919Z,0.00
2022-09-02T02:27:39.910Z,0.00
2022-09-02T02:28:39.929Z,0.00
2022-09-02T02:29:39.901Z,0.00
2022-09-02T02:30:39.889Z,0.00
2022-09-02T02:31:39.933Z,0.00
2022-09-02T02:32:39.878Z,0.00
2022-09-02T02:33:39.897Z,0.00
2022-09-02T02:34:39.860Z,0.00
2022-09-02T02:35:39.862Z,0.00
2022-09-02T02:36:39.844Z,0.00
2022-09-02T02:37:39.840Z,0.00
2022-09-02T02:38:39.853Z,0.00
2022-09-02T02:39:39.819Z,0.00
2022-09-02T02:40:39.908Z,0.00
2022-09-02T02:41:39.803Z,0.00
2022-09-02T02:42:39.797Z,0.00
2022-09-02T02:43:39.820Z,0.00
2022-09-02T02:44:39.788Z,0.00
2022-09-02T02:45:39.787Z,0.00
2022-09-02T02:46:39.802Z,0.00
2022-09-02T02:47:39.764Z,0.00
2022-09-02T02:48:39.782Z,0.00
2022-09-02T02:49:39.744Z,0.00
2022-09-02T02:50:39.737Z,0.00
2022-09-02T02:51:39.735Z,0.00
2022-09-02T02:52:39.729Z,0.00
2022-09-02T02:53:39.720Z,0.00
2022-09-02T02:54:39.736Z,0.00
2022-09-02T02:55:39.696Z,0.00
2022-09-02T02:56:39.696Z,0.00
2022-09-02T02:57:39.664Z,0.00
2022-09-02T02:58:40.675Z,0.00
2022-09-02T02:59:39.697Z,0.00
2022-09-02T03:00:39.666Z,0.00
2022-09-02T03:01:39.758Z,0.00
2022-09-02T03:02:39.755Z,0.00
2022-09-02T03:03:39.644Z,0.00
2022-09-02T03:04:39.657Z,0.00
2022-09-02T03:05:39.620Z,0.00
2022-09-02T03:06:39.609Z,0.00
2022-09-02T03:07:39.618Z,0.00
2022-09-02T03:08:39.595Z,0.00
2022-09-02T03:09:39.619Z,0.00
2022-09-02T03:10:39.585Z,0.00
2022-09-02T03:11:39.583Z,0.00
2022-09-02T03:12:39.571Z,0.00
2022-09-02T03:13:39.562Z,0.00
2022-09-02T03:14:39.578Z,0.00
2022-09-02T03:15:39.594Z,0.00
2022-09-02T03:16:39.542Z,0.00
2022-09-02T03:17:39.524Z,0.00
2022-09-02T03:18:39.518Z,0.00
2022-09-02T03:19:39.541Z,0.00
2022-09-02T03:20:39.504Z,0.00
2022-09-02T03:21:39.502Z,0.00
2022-09-02T03:22:39.484Z,0.00
2022-09-02T03:23:39.479Z,0.00
2022-09-02T03:24:39.499Z,0.00
2022-09-02T03:25:39.459Z,0.00
2022-09-02T03:26:39.461Z,0.00
2022-09-02T03:27:39.450Z,0.00
2022-09-02T03:28:39.442Z,0.00
2022-09-02T03:29:39.450Z,0.00
2022-09-02T03:30:39.417Z,0.00
2022-09-02T03:31:39.450Z,0.00
2022-09-02T03:32:39.409Z,0.00
2022-09-02T03:33:39.394Z,0.00
2022-09-02T03:34:39.413Z,0.00
2022-09-02T03:35:39.379Z,0.00
2022-09-02T03:36:39.374Z,0.00
2022-09-02T03:37:39.362Z,0.00
2022-09-02T03:38:39.361Z,0.00
2022-09-02T03:39:39.368Z,0.00
2022-09-02T03:40:39.406Z,0.00
2022-09-02T03:41:39.333Z,0.00
2022-09-02T03:42:39.324Z,0.00
2022-09-02T03:43:39.318Z,0.00
2022-09-02T03:44:39.336Z,0.00
2022-09-02T03:45:39.351Z,0.00
2022-09-02T03:46:39.295Z,0.00
2022-09-02T03:47:39.280Z,0.00
2022-09-02T03:48:39.275Z,0.00
2022-09-02T03:49:39.296Z,0.00
2022-09-02T03:50:39.261Z,0.00
2022-09-02T03:51:39.252Z,0.00
2022-09-02T03:52:39.245Z,0.00
2022-09-02T03:53:39.251Z,0.00
2022-09-02T03:54:39.255Z,0.00
2022-09-02T03:55:39.224Z,0.00
2022-09-02T03:56:39.215Z,0.00
2022-09-02T03:57:39.209Z,0.00
2022-09-02T03:58:39.232Z,0.00
2022-09-02T03:59:39.215Z,0.00
2022-09-02T04:00:39.189Z,0.00
2022-09-02T04:01:39.210Z,0.00
2022-09-02T04:02:39.283Z,0.00
2022-09-02T04:03:39.164Z,0.00
2022-09-02T04:04:39.178Z,0.00
2022-09-02T04:05:39.146Z,0.00
2022-09-02T04:06:39.142Z,0.00
2022-09-02T04:07:39.129Z,0.00
2022-09-02T04:08:39.127Z,0.00
2022-09-02T04:09:42.378Z,0.00
2022-09-02T04:10:40.110Z,0.00
2022-09-02T04:11:39.098Z,0.00
2022-09-02T04:12:39.094Z,0.00
2022-09-02T04:13:39.090Z,0.00
2022-09-02T04:14:39.102Z,0.00
2022-09-02T04:15:39.082Z,0.00
2022-09-02T04:16:39.062Z,0.00
2022-09-02T04:17:39.052Z,0.00
2022-09-02T04:18:39.046Z,0.00
2022-09-02T04:19:39.065Z,0.00
2022-09-02T04:20:39.030Z,0.00
2022-09-02T04:21:39.021Z,0.00
2022-09-02T04:22:39.014Z,0.00
2022-09-02T04:23:39.004Z,0.00
2022-09-02T04:24:39.022Z,0.00
2022-09-02T04:25:38.987Z,0.00
2022-09-02T04:26:38.977Z,0.00
2022-09-02T04:27:39.971Z,0.00
2022-09-02T04:28:38.965Z,0.00
2022-09-02T04:29:38.982Z,0.00
2022-09-02T04:30:38.949Z,0.00
2022-09-02T04:31:38.979Z,0.00
2022-09-02T04:32:40.923Z,0.00
2022-09-02T04:33:39.931Z,0.00
2022-09-02T04:34:38.942Z,5.62
2022-09-02T04:35:38.907Z,5.62
2022-09-02T04:36:38.898Z,5.62
2022-09-02T04:37:38.888Z,5.62
2022-09-02T04:38:38.884Z,5.62
2022-09-02T04:39:38.904Z,5.62
2022-09-02T04:40:38.906Z,5.62
2022-09-02T04:41:38.860Z,5.62
2022-09-02T04:42:38.861Z,5.62
2022-09-02T04:43:38.847Z,5.62
2022-09-02T04:44:38.860Z,5.62
2022-09-02T04:45:38.831Z,5.62
2022-09-02T04:46:38.928Z,11.25
2022-09-02T04:47:38.819Z,11.25
2022-09-02T04:48:38.809Z,11.25
2022-09-02T04:49:38.824Z,11.25
2022-09-02T04:50:38.791Z,11.25
2022-09-02T04:51:38.779Z,11.25
2022-09-02T04:52:38.781Z,11.25
2022-09-02T04:53:38.769Z,11.25
2022-09-02T04:54:38.791Z,16.88
2022-09-02T04:55:38.755Z,16.88
2022-09-02T04:56:38.745Z,16.88
2022-09-02T04:57:38.738Z,16.88
2022-09-02T04:58:38.731Z,16.88
2022-09-02T04:59:38.727Z,16.88
2022-09-02T05:00:38.743Z,16.88
2022-09-02T05:01:38.834Z,22.50
2022-09-02T05:02:38.769Z,22.50
2022-09-02T05:03:38.690Z,22.50
2022-09-02T05:04:38.684Z,22.50
2022-09-02T05:05:38.702Z,22.50
2022-09-02T05:06:43.871Z,28.12
2022-09-02T05:07:40.662Z,28.12
2022-09-02T05:08:38.651Z,28.12
2022-09-02T05:09:38.644Z,28.12
2022-09-02T05:10:38.660Z,33.75
2022-09-02T05:11:38.626Z,33.75
2022-09-02T05:12:38.621Z,33.75
2022-09-02T05:13:38.612Z,33.75
2022-09-02T05:14:38.605Z,33.75
2022-09-02T05:15:38.677Z,33.75
2022-09-02T05:16:38.590Z,39.38
2022-09-02T05:17:38.586Z,39.38
2022-09-02T05:18:38.578Z,39.38
2022-09-02T05:19:38.570Z,39.38
2022-09-02T05:20:38.586Z,39.38
2022-09-02T05:21:38.544Z,39.38
2022-09-02T05:22:39.549Z,45.00
2022-09-02T05:23:38.538Z,45.00
2022-09-02T05:24:38.537Z,45.00
2022-09-02T05:25:38.549Z,45.00
2022-09-02T05:26:38.516Z,50.62
2022-09-02T05:27:38.512Z,50.62
2022-09-02T05:28:38.499Z,50.62
2022-09-02T05:29:38.498Z,56.25
2022-09-02T05:30:38.537Z,56.25
2022-09-02T05:31:38.482Z,56.25
2022-09-02T05:32:38.471Z,61.88
2022-09-02T05:33:38.466Z,61.88
2022-09-02T05:34:38.452Z,61.88
2022-09-02T05:35:38.474Z,67.50
2022-09-02T05:36:39.446Z,67.50
2022-09-02T05:37:38.440Z,73.12
2022-09-02T05:38:38.433Z,73.12
2022-09-02T05:39:38.426Z,73.12
2022-09-02T05:40:38.513Z,78.75
2022-09-02T05:41:38.410Z,78.75
2022-09-02T05:42:38.399Z,78.75
2022-09-02T05:43:38.391Z,78.75
2022-09-02T05:44:38.384Z,78.75
2022-09-02T05:45:38.416Z,78.75
2022-09-02T05:46:38.365Z,78.75
2022-09-02T05:47:38.362Z,78.75
2022-09-02T05:48:38.354Z,78.75
2022-09-02T05:49:38.348Z,84.38
2022-09-02T05:50:38.362Z,84.38
2022-09-02T05:51:38.329Z,84.38
2022-09-02T05:52:38.324Z,84.38
2022-09-02T05:53:38.314Z,84.38
2022-09-02T05:54:38.312Z,84.38
2022-09-02T05:55:38.322Z,84.38
2022-09-02T05:56:38.294Z,90.00
2022-09-02T05:57:38.285Z,90.00
2022-09-02T05:58:38.275Z,90.00
2022-09-02T05:59:38.269Z,90.00
2022-09-02T06:00:38.287Z,90.00
2022-09-02T06:01:38.310Z,90.00
2022-09-02T06:02:38.314Z,95.62
2022-09-02T06:03:38.240Z,95.62
2022-09-02T06:04:38.232Z,101.25
2022-09-02T06:05:38.247Z,106.88
2022-09-02T06:06:38.214Z,106.88
2022-09-02T06:07:38.210Z,112.50
2022-09-02T06:08:38.199Z,118.12
2022-09-02T06:09:38.196Z,118.12
2022-09-02T06:10:38.211Z,123.75
2022-09-02T06:11:38.181Z,129.38
2022-09-02T06:12:42.410Z,129.38
2022-09-02T06:13:39.163Z,135.00
2022-09-02T06:14:38.162Z,135.00
2022-09-02T06:15:38.222Z,135.00
2022-09-02T06:16:38.140Z,140.62
2022-09-02T06:17:38.132Z,135.00
2022-09-02T06:18:38.128Z,135.00
2022-09-02T06:19:38.118Z,135.00
2022-09-02T06:20:38.138Z,140.62
2022-09-02T06:21:38.099Z,140.62
2022-09-02T06:22:38.094Z,140.62
2022-09-02T06:23:38.087Z,140.62
2022-09-02T06:24:38.082Z,140.62
2022-09-02T06:25:38.096Z,140.62
2022-09-02T06:26:38.066Z,146.25
2022-09-02T06:27:38.054Z,151.88
2022-09-02T06:28:38.044Z,151.88
2022-09-02T06:29:38.040Z,157.50
2022-09-02T06:30:38.104Z,157.50
2022-09-02T06:31:38.024Z,157.50
2022-09-02T06:32:38.015Z,163.12
2022-09-02T06:33:38.038Z,163.12
2022-09-02T06:34:37.999Z,163.12
2022-09-02T06:35:38.016Z,163.12
2022-09-02T06:36:37.981Z,168.75
2022-09-02T06:37:37.975Z,168.75
2022-09-02T06:38:39.780Z,168.75
2022-09-02T06:39:37.956Z,168.75
2022-09-02T06:40:38.055Z,174.38
2022-09-02T06:41:37.937Z,174.38
2022-09-02T06:42:37.935Z,174.38
2022-09-02T06:43:42.486Z,174.38
2022-09-02T06:44:38.918Z,174.38
2022-09-02T06:45:37.936Z,174.38
2022-09-02T06:46:37.971Z,174.38
2022-09-02T06:47:37.899Z,174.38
2022-09-02T06:48:37.891Z,174.38
2022-09-02T06:49:37.879Z,174.38
2022-09-02T06:50:37.896Z,174.38
2022-09-02T06:51:37.866Z,180.00
2022-09-02T06:52:37.859Z,185.62
2022-09-02T06:53:37.850Z,185.62
2022-09-02T06:54:37.844Z,191.25
2022-09-02T06:55:37.860Z,196.88
2022-09-02T06:56:37.822Z,202.50
2022-09-02T06:57:37.815Z,202.50
2022-09-02T06:58:37.807Z,208.12
2022-09-02T06:59:37.803Z,208.12
2022-09-02T07:00:37.830Z,213.75
2022-09-02T07:01:37.864Z,219.38
2022-09-02T07:02:37.777Z,219.38
2022-09-02T07:03:37.769Z,225.00
2022-09-02T07:04:37.757Z,225.00
2022-09-02T07:05:37.752Z,230.62
2022-09-02T07:06:37.769Z,236.25
2022-09-02T07:07:37.737Z,236.25
2022-09-02T07:08:37.729Z,241.88
2022-09-02T07:09:37.723Z,247.50
2022-09-02T07:10:37.739Z,253.12
2022-09-02T07:11:37.706Z,258.75
2022-09-02T07:12:37.698Z,264.38
2022-09-02T07:13:37.694Z,270.00
2022-09-02T07:14:37.685Z,275.62
2022-09-02T07:15:37.701Z,292.50
2022-09-02T07:16:37.720Z,303.75
2022-09-02T07:17:37.658Z,320.62
2022-09-02T07:18:37.650Z,326.25
2022-09-02T07:19:37.646Z,331.88
2022-09-02T07:20:37.663Z,331.88
2022-09-02T07:21:37.629Z,331.88
2022-09-02T07:22:37.685Z,337.50
2022-09-02T07:23:40.575Z,331.88
2022-09-02T07:24:38.618Z,331.88
2022-09-02T07:25:37.632Z,326.25
2022-09-02T07:26:37.593Z,320.62
2022-09-02T07:27:37.588Z,315.00
2022-09-02T07:28:37.576Z,315.00
2022-09-02T07:29:37.568Z,320.62
2022-09-02T07:30:37.589Z,320.62
2022-09-02T07:31:37.576Z,320.62
2022-09-02T07:32:37.550Z,320.62
2022-09-02T07:33:37.537Z,320.62
2022-09-02T07:34:38.532Z,320.62
2022-09-02T07:35:37.526Z,320.62
2022-09-02T07:36:37.541Z,315.00
2022-09-02T07:37:37.508Z,320.62
2022-09-02T07:38:37.498Z,320.62
2022-09-02T07:39:37.491Z,326.25
2022-09-02T07:40:37.565Z,331.88
2022-09-02T07:41:37.501Z,337.50
2022-09-02T07:42:37.491Z,343.12
2022-09-02T07:43:37.491Z,343.12
2022-09-02T07:44:37.475Z,348.75
2022-09-02T07:45:37.540Z,348.75
2022-09-02T07:46:37.475Z,354.38
2022-09-02T07:47:37.739Z,360.00
2022-09-02T07:48:37.431Z,371.25
2022-09-02T07:50:39.413Z,388.12
2022-09-02T07:51:37.440Z,393.75
2022-09-02T07:52:37.393Z,393.75
2022-09-02T07:53:37.381Z,405.00
2022-09-02T07:54:37.377Z,410.62
2022-09-02T07:55:37.370Z,421.88
2022-09-02T07:56:37.388Z,433.12
2022-09-02T07:57:37.356Z,444.38
2022-09-02T07:58:37.345Z,455.62
2022-09-02T07:59:37.334Z,461.25
2022-09-02T08:00:37.330Z,472.50
2022-09-02T08:01:37.461Z,489.38
2022-09-02T08:02:37.333Z,500.62
2022-09-02T08:03:37.308Z,511.88
2022-09-02T08:04:37.294Z,528.75
2022-09-02T08:05:37.299Z,545.62
2022-09-02T08:06:37.304Z,551.25
2022-09-02T08:07:37.270Z,562.50
2022-09-02T08:08:37.262Z,585.00
2022-09-02T08:09:37.255Z,601.88
2022-09-02T08:10:37.249Z,624.38
2022-09-02T08:11:37.269Z,646.88
2022-09-02T08:12:37.234Z,669.38
2022-09-02T08:13:37.223Z,697.50
2022-09-02T08:14:37.218Z,736.88
2022-09-02T08:15:37.209Z,781.88
2022-09-02T08:16:37.262Z,843.75
2022-09-02T08:17:37.199Z,905.62
2022-09-02T08:18:37.187Z,984.38
2022-09-02T08:19:37.184Z,1051.88
2022-09-02T08:20:37.229Z,1108.12
2022-09-02T08:21:37.191Z,1164.38
2022-09-02T08:22:37.168Z,1586.25
2022-09-02T08:23:37.876Z,1440.00
2022-09-02T08:24:38.143Z,1800.00
2022-09-02T08:25:37.136Z,2115.00
2022-09-02T08:26:37.164Z,1738.12
2022-09-02T08:27:37.115Z,2323.12
2022-09-02T08:28:37.111Z,1248.75
2022-09-02T08:29:37.102Z,1147.50
2022-09-02T08:30:37.092Z,1226.25
2022-09-02T08:31:37.149Z,1693.12
2022-09-02T08:32:37.080Z,1468.12
2022-09-02T08:33:37.070Z,1738.12
2022-09-02T08:34:37.065Z,1541.25
2022-09-02T08:35:37.055Z,1479.38
2022-09-02T08:36:37.075Z,1080.00
2022-09-02T08:37:37.039Z,1091.25
2022-09-02T08:38:37.047Z,1417.50
2022-09-02T08:39:37.026Z,1996.88
2022-09-02T08:40:37.054Z,2199.38
2022-09-02T08:41:37.037Z,1366.88
2022-09-02T08:42:37.016Z,1248.75
2022-09-02T08:43:37.992Z,1558.12
2022-09-02T08:44:36.990Z,2238.75
2022-09-02T08:45:37.013Z,2019.38
2022-09-02T08:46:36.997Z,2098.12
2022-09-02T08:47:36.961Z,2064.38
2022-09-02T08:48:36.958Z,2193.75
2022-09-02T08:49:36.949Z,2238.75
2022-09-02T08:50:36.942Z,2514.38
2022-09-02T08:51:37.558Z,2379.38
2022-09-02T08:52:36.931Z,2261.25
2022-09-02T08:53:36.918Z,2908.12
2022-09-02T08:54:36.913Z,3290.62
2022-09-02T08:55:36.918Z,3813.75
2022-09-02T08:56:36.920Z,4050.00
2022-09-02T08:57:36.889Z,3892.50
2022-09-02T08:58:37.881Z,3459.38
2022-09-02T08:59:36.907Z,2885.62
2022-09-02T09:00:36.869Z,2463.75
2022-09-02T09:01:36.934Z,1940.62
2022-09-02T09:02:36.923Z,1800.00
2022-09-02T09:03:36.841Z,1676.25
2022-09-02T09:04:36.839Z,1603.12
2022-09-02T09:05:36.829Z,1546.88
2022-09-02T09:06:36.853Z,1473.75
2022-09-02T09:08:37.812Z,1355.62
2022-09-02T09:09:36.800Z,1299.38
2022-09-02T09:10:36.796Z,1220.62
2022-09-02T09:11:36.815Z,1170.00
2022-09-02T09:12:36.782Z,1119.38
2022-09-02T09:13:41.212Z,1091.25
2022-09-02T09:14:37.768Z,1074.38
2022-09-02T09:15:36.757Z,1051.88
2022-09-02T09:16:36.807Z,1035.00
2022-09-02T09:17:36.769Z,1012.50
2022-09-02T09:18:36.735Z,995.62
2022-09-02T09:19:36.729Z,967.50
2022-09-02T09:20:36.720Z,950.62
2022-09-02T09:21:36.717Z,933.75
2022-09-02T09:22:36.733Z,916.88
2022-09-02T09:23:36.704Z,916.88
2022-09-02T09:24:36.698Z,905.62
2022-09-02T09:25:36.682Z,905.62
2022-09-02T09:26:36.675Z,894.38
2022-09-02T09:27:36.694Z,877.50
2022-09-02T09:28:36.658Z,860.62
2022-09-02T09:29:36.653Z,855.00
2022-09-02T09:30:36.650Z,843.75
2022-09-02T09:31:36.677Z,826.88
2022-09-02T09:32:36.666Z,821.25
2022-09-02T09:33:36.626Z,815.62
2022-09-02T09:34:36.616Z,810.00
2022-09-02T09:35:36.608Z,798.75
2022-09-02T09:36:36.603Z,793.12
2022-09-02T09:37:36.671Z,781.88
2022-09-02T09:38:36.591Z,776.25
2022-09-02T09:39:36.596Z,765.00
2022-09-02T09:40:36.612Z,759.38
2022-09-02T09:41:36.566Z,748.12
2022-09-02T09:42:36.587Z,736.88
2022-09-02T09:43:36.553Z,720.00
2022-09-02T09:44:36.546Z,708.75
2022-09-02T09:45:36.550Z,680.62
2022-09-02T09:46:36.547Z,646.88
2022-09-02T09:47:36.547Z,388.12
2022-09-02T09:48:36.520Z,585.00
2022-09-02T09:49:36.515Z,568.12
2022-09-02T09:50:37.086Z,551.25
2022-09-02T09:51:49.848Z,545.62
2022-09-02T09:52:37.513Z,534.38
2022-09-02T09:53:36.481Z,540.00
2022-09-02T09:54:36.478Z,545.62
2022-09-02T09:55:39.759Z,506.25
2022-09-02T09:56:37.784Z,500.62
2022-09-02T09:57:37.497Z,540.00
2022-09-02T09:58:36.441Z,405.00
2022-09-02T09:59:37.438Z,405.00
2022-09-02T10:00:36.447Z,405.00
2022-09-02T10:01:36.423Z,421.88
2022-09-02T10:02:36.686Z,511.88
2022-09-02T10:03:37.412Z,523.12
2022-09-02T10:04:44.212Z,523.12
2022-09-02T10:05:38.400Z,410.62
2022-09-02T10:06:36.389Z,489.38
2022-09-02T10:07:36.405Z,455.62
2022-09-02T10:08:36.376Z,450.00
2022-09-02T10:09:36.376Z,466.88
2022-09-02T10:10:36.354Z,483.75
2022-09-02T10:11:36.350Z,551.25
2022-09-02T10:12:36.381Z,618.75
2022-09-02T10:13:36.332Z,556.88
2022-09-02T10:14:36.325Z,601.88
2022-09-02T10:15:36.314Z,568.12
2022-09-02T10:16:36.358Z,517.50
2022-09-02T10:17:36.371Z,523.12
2022-09-02T10:18:36.292Z,523.12
2022-09-02T10:19:36.281Z,523.12
2022-09-02T10:20:38.926Z,528.75
2022-09-02T10:21:38.396Z,601.88
2022-09-02T10:22:48.602Z,528.75
2022-09-02T10:23:37.250Z,551.25
2022-09-02T10:24:36.247Z,495.00
2022-09-02T10:25:36.239Z,489.38
2022-09-02T10:26:36.229Z,483.75
2022-09-02T10:27:36.248Z,483.75
2022-09-02T10:28:36.216Z,478.12
2022-09-02T10:29:36.211Z,478.12
2022-09-02T10:30:36.200Z,478.12
2022-09-02T10:31:36.228Z,478.12
2022-09-02T10:32:36.215Z,478.12
2022-09-02T10:33:36.187Z,483.75
2022-09-02T10:34:36.185Z,466.88
2022-09-02T10:35:36.172Z,461.25
2022-09-02T10:36:36.162Z,461.25
2022-09-02T10:37:36.181Z,455.62
2022-09-02T10:38:36.143Z,455.62
2022-09-02T10:39:36.135Z,455.62
2022-09-02T10:40:36.168Z,461.25
2022-09-02T10:41:36.203Z,461.25
2022-09-02T10:42:36.141Z,466.88
2022-09-02T10:43:36.105Z,472.50
2022-09-02T10:44:36.098Z,483.75
2022-09-02T10:45:36.089Z,495.00
2022-09-02T10:46:36.101Z,500.62
2022-09-02T10:47:36.093Z,500.62
2022-09-02T10:48:36.067Z,500.62
2022-09-02T10:49:36.060Z,495.00
2022-09-02T10:50:36.051Z,500.62
2022-09-02T10:51:36.045Z,511.88
2022-09-02T10:52:36.055Z,506.25
2022-09-02T10:53:36.023Z,506.25
2022-09-02T10:54:36.019Z,511.88
2022-09-02T10:55:36.015Z,523.12
2022-09-02T10:56:36.012Z,534.38
2022-09-02T10:57:36.023Z,540.00
2022-09-02T10:58:35.989Z,540.00
2022-09-02T10:59:35.981Z,534.38
2022-09-02T11:00:36.029Z,528.75
2022-09-02T11:01:36.630Z,528.75
2022-09-02T11:02:35.988Z,528.75
2022-09-02T11:03:36.026Z,534.38
2022-09-02T11:04:35.945Z,540.00
2022-09-02T11:05:35.939Z,506.25
2022-09-02T11:06:58.742Z,495.00
2022-09-02T11:07:37.944Z,489.38
2022-09-02T11:08:35.917Z,489.38
2022-09-02T11:09:35.910Z,495.00
2022-09-02T11:10:35.899Z,489.38
2022-09-02T11:11:35.891Z,495.00
2022-09-02T11:12:35.924Z,495.00
2022-09-02T11:13:35.874Z,495.00
2022-09-02T11:14:35.858Z,495.00
2022-09-02T11:15:36.861Z,489.38
2022-09-02T11:17:35.876Z,500.62
2022-09-02T11:18:35.843Z,511.88
2022-09-02T11:19:35.832Z,607.50
2022-09-02T11:20:35.828Z,517.50
2022-09-02T11:21:35.806Z,540.00
2022-09-02T11:22:36.830Z,630.00
2022-09-02T11:23:35.796Z,630.00
2022-09-02T11:24:35.786Z,641.25
2022-09-02T11:25:35.783Z,635.62
2022-09-02T11:26:35.782Z,635.62
2022-09-02T11:27:43.287Z,624.38
2022-09-02T11:28:37.755Z,607.50
2022-09-02T11:29:35.748Z,568.12
2022-09-02T11:30:35.741Z,562.50
2022-09-02T11:31:38.853Z,528.75
2022-09-02T11:32:36.756Z,540.00
2022-09-02T11:33:35.714Z,517.50
2022-09-02T11:34:35.939Z,511.88
2022-09-02T11:35:35.702Z,585.00
2022-09-02T11:36:35.694Z,562.50
2022-09-02T11:37:35.687Z,607.50
2022-09-02T11:38:35.704Z,511.88
2022-09-02T11:39:52.550Z,500.62
2022-09-02T11:40:38.910Z,500.62
2022-09-02T11:41:37.072Z,511.88
2022-09-02T11:42:36.674Z,517.50
2022-09-02T11:43:35.637Z,511.88
2022-09-02T11:44:35.628Z,517.50
2022-09-02T11:45:35.683Z,517.50
2022-09-02T11:46:35.657Z,517.50
2022-09-02T11:47:35.614Z,511.88
2022-09-02T11:48:35.626Z,506.25
2022-09-02T11:49:35.593Z,506.25
2022-09-02T11:50:38.724Z,506.25
2022-09-02T11:51:36.585Z,511.88
2022-09-02T11:52:35.574Z,511.88
2022-09-02T11:53:35.595Z,540.00
2022-09-02T11:54:35.558Z,523.12
2022-09-02T11:55:35.547Z,534.38
2022-09-02T11:56:35.545Z,618.75
2022-09-02T11:57:35.534Z,506.25
2022-09-02T11:58:35.554Z,495.00
2022-09-02T11:59:35.521Z,483.75
2022-09-02T12:00:35.531Z,466.88
2022-09-02T12:01:35.505Z,455.62
2022-09-02T12:02:35.504Z,455.62
2022-09-02T12:03:46.983Z,455.62
2022-09-02T12:04:59.470Z,455.62
2022-09-02T12:05:37.602Z,461.25
2022-09-02T12:06:35.590Z,461.25
2022-09-02T12:07:35.484Z,461.25
2022-09-02T12:08:35.479Z,461.25
2022-09-02T12:09:35.547Z,455.62
2022-09-02T12:10:35.440Z,450.00
2022-09-02T12:11:35.430Z,444.38
2022-09-02T12:12:35.423Z,438.75
2022-09-02T12:13:35.438Z,433.12
2022-09-02T12:14:35.408Z,433.12
2022-09-02T12:15:35.401Z,427.50
2022-09-02T12:16:35.467Z,427.50
2022-09-02T12:17:35.382Z,438.75
2022-09-02T12:18:35.390Z,545.62
2022-09-02T12:19:36.370Z,523.12
2022-09-02T12:20:35.358Z,540.00
2022-09-02T12:21:35.353Z,528.75
2022-09-02T12:22:35.342Z,517.50
2022-09-02T12:23:35.366Z,534.38
2022-09-02T12:24:35.328Z,433.12
2022-09-02T12:25:35.317Z,416.25
2022-09-02T12:26:35.313Z,416.25
2022-09-02T12:27:35.305Z,421.88
2022-09-02T12:28:35.322Z,427.50
2022-09-02T12:29:35.290Z,433.12
2022-09-02T12:30:35.283Z,438.75
2022-09-02T12:31:35.286Z,438.75
2022-09-02T12:32:35.265Z,438.75
2022-09-02T12:33:35.281Z,438.75
2022-09-02T12:34:35.254Z,444.38
2022-09-02T12:35:35.336Z,444.38
2022-09-02T12:36:35.235Z,444.38
2022-09-02T12:37:35.227Z,450.00
2022-09-02T12:38:35.246Z,495.00
2022-09-02T12:39:35.216Z,455.62
2022-09-02T12:40:35.276Z,472.50
2022-09-02T12:41:35.193Z,466.88
2022-09-02T12:42:35.188Z,562.50
2022-09-02T12:43:35.215Z,556.88
2022-09-02T12:44:35.266Z,511.88
2022-09-02T12:45:35.164Z,551.25
2022-09-02T12:46:35.172Z,545.62
2022-09-02T12:47:35.155Z,540.00
2022-09-02T12:48:38.451Z,500.62
2022-09-02T12:49:35.134Z,421.88
2022-09-02T12:50:35.125Z,495.00